sensor_id;sensor_type;location;lat;lon;timestamp;pressure;altitude;pressure_sealevel;temperature;humidity
34124;BME280;13153;52.316;21.166;2024-02-26T00:02:24;99566.63;;;11.90;62.26
34124;BME280;13153;52.316;21.166;2024-02-26T00:04:49;99559.63;;;11.90;62.07
34124;BME280;13153;52.316;21.166;2024-02-26T00:07:16;99556.94;;;11.84;62.24
34124;BME280;13153;52.316;21.166;2024-02-26T00:09:42;99548.13;;;11.81;62.63
34124;BME280;13153;52.316;21.166;2024-02-26T00:12:08;99551.59;;;11.77;62.11
34124;BME280;13153;52.316;21.166;2024-02-26T00:14:34;99552.41;;;11.73;61.82
34124;BME280;13153;52.316;21.166;2024-02-26T00:17:00;99551.44;;;11.62;62.73
34124;BME280;13153;52.316;21.166;2024-02-26T00:19:26;99547.88;;;11.53;63.34
34124;BME280;13153;52.316;21.166;2024-02-26T00:21:51;99554.03;;;11.54;63.64
34124;BME280;13153;52.316;21.166;2024-02-26T00:24:19;99562.72;;;11.47;63.63
34124;BME280;13153;52.316;21.166;2024-02-26T00:26:45;99562.44;;;11.19;64.48
34124;BME280;13153;52.316;21.166;2024-02-26T00:29:10;99564.16;;;11.14;64.86
34124;BME280;13153;52.316;21.166;2024-02-26T00:31:37;99554.34;;;11.03;65.76
34124;BME280;13153;52.316;21.166;2024-02-26T00:34:06;99550.03;;;11.08;65.78
34124;BME280;13153;52.316;21.166;2024-02-26T00:36:31;99557.09;;;11.12;65.66
34124;BME280;13153;52.316;21.166;2024-02-26T00:38:57;99551.91;;;11.19;65.37
34124;BME280;13153;52.316;21.166;2024-02-26T00:41:23;99551.06;;;11.23;65.30
34124;BME280;13153;52.316;21.166;2024-02-26T00:43:49;99545.03;;;11.32;65.21
34124;BME280;13153;52.316;21.166;2024-02-26T00:46:15;99543.34;;;11.39;64.80
34124;BME280;13153;52.316;21.166;2024-02-26T00:48:40;99542.47;;;11.41;64.68
34124;BME280;13153;52.316;21.166;2024-02-26T00:51:06;99541.63;;;11.44;64.08
34124;BME280;13153;52.316;21.166;2024-02-26T00:53:33;99540.75;;;11.45;64.05
34124;BME280;13153;52.316;21.166;2024-02-26T00:55:59;99536.38;;;11.47;63.85
34124;BME280;13153;52.316;21.166;2024-02-26T00:58:27;99533.72;;;11.44;63.88
34124;BME280;13153;52.316;21.166;2024-02-26T01:00:53;99539.84;;;11.41;63.96
34124;BME280;13153;52.316;21.166;2024-02-26T01:03:19;99534.44;;;11.28;64.60
34124;BME280;13153;52.316;21.166;2024-02-26T01:05:45;99533.50;;;11.21;64.99
34124;BME280;13153;52.316;21.166;2024-02-26T01:08:11;99530.94;;;11.29;64.74
34124;BME280;13153;52.316;21.166;2024-02-26T01:10:37;99540.63;;;11.31;64.92
34124;BME280;13153;52.316;21.166;2024-02-26T01:13:03;99532.75;;;11.33;64.51
34124;BME280;13153;52.316;21.166;2024-02-26T01:15:29;99529.22;;;11.32;64.65
34124;BME280;13153;52.316;21.166;2024-02-26T01:17:54;99528.34;;;11.32;64.44
34124;BME280;13153;52.316;21.166;2024-02-26T01:20:21;99536.25;;;11.32;64.60
34124;BME280;13153;52.316;21.166;2024-02-26T01:22:47;99526.59;;;11.34;64.25
34124;BME280;13153;52.316;21.166;2024-02-26T01:25:13;99526.63;;;11.35;64.43
34124;BME280;13153;52.316;21.166;2024-02-26T01:27:39;99529.25;;;11.34;64.12
34124;BME280;13153;52.316;21.166;2024-02-26T01:30:08;99525.69;;;11.29;64.40
34124;BME280;13153;52.316;21.166;2024-02-26T01:32:34;99531.81;;;11.29;64.26
34124;BME280;13153;52.316;21.166;2024-02-26T01:35:02;99524.81;;;11.30;64.34
34124;BME280;13153;52.316;21.166;2024-02-26T01:37:33;99530.06;;;11.28;64.20
34124;BME280;13153;52.316;21.166;2024-02-26T01:39:58;99523.00;;;11.24;64.46
34124;BME280;13153;52.316;21.166;2024-02-26T01:42:24;99529.13;;;11.21;64.43
34124;BME280;13153;52.316;21.166;2024-02-26T01:44:50;99536.13;;;11.19;64.50
34124;BME280;13153;52.316;21.166;2024-02-26T01:47:16;99534.31;;;11.14;64.47
34124;BME280;13153;52.316;21.166;2024-02-26T01:49:42;99536.00;;;11.09;64.57
34124;BME280;13153;52.316;21.166;2024-02-26T01:52:09;99533.31;;;11.04;64.78
34124;BME280;13153;52.316;21.166;2024-02-26T01:54:37;99531.50;;;10.99;64.92
34124;BME280;13153;52.316;21.166;2024-02-26T01:57:07;99533.22;;;10.94;65.01
34124;BME280;13153;52.316;21.166;2024-02-26T01:59:34;99532.38;;;10.95;65.03
34124;BME280;13153;52.316;21.166;2024-02-26T02:02:03;99535.88;;;10.95;65.21
34124;BME280;13153;52.316;21.166;2024-02-26T02:04:31;99531.44;;;10.91;65.06
34124;BME280;13153;52.316;21.166;2024-02-26T02:06:59;99533.19;;;10.90;65.13
34124;BME280;13153;52.316;21.166;2024-02-26T02:09:27;99526.16;;;10.89;65.27
34124;BME280;13153;52.316;21.166;2024-02-26T02:11:54;99539.25;;;10.85;65.27
34124;BME280;13153;52.316;21.166;2024-02-26T02:14:20;99536.56;;;10.79;65.58
34124;BME280;13153;52.316;21.166;2024-02-26T02:16:47;99534.72;;;10.72;65.59
34124;BME280;13153;52.316;21.166;2024-02-26T02:19:13;99533.75;;;10.64;66.05
34124;BME280;13153;52.316;21.166;2024-02-26T02:21:39;99533.66;;;10.57;66.33
34124;BME280;13153;52.316;21.166;2024-02-26T02:24:05;99536.28;;;10.56;66.51
34124;BME280;13153;52.316;21.166;2024-02-26T02:26:31;99534.53;;;10.56;66.57
34124;BME280;13153;52.316;21.166;2024-02-26T02:28:58;99539.78;;;10.56;66.16
34124;BME280;13153;52.316;21.166;2024-02-26T02:31:24;99535.31;;;10.49;66.36
34124;BME280;13153;52.316;21.166;2024-02-26T02:33:50;99539.53;;;10.37;66.91
34124;BME280;13153;52.316;21.166;2024-02-26T02:36:16;99539.56;;;10.38;66.65
34124;BME280;13153;52.316;21.166;2024-02-26T02:38:52;99547.47;;;10.38;66.93
34124;BME280;13153;52.316;21.166;2024-02-26T02:41:18;99543.94;;;10.41;67.19
34124;BME280;13153;52.316;21.166;2024-02-26T02:43:45;99543.13;;;10.43;67.18
34124;BME280;13153;52.316;21.166;2024-02-26T02:46:10;99539.59;;;10.43;67.02
34124;BME280;13153;52.316;21.166;2024-02-26T02:48:41;99550.16;;;10.46;66.76
34124;BME280;13153;52.316;21.166;2024-02-26T02:51:09;99545.81;;;10.49;67.04
34124;BME280;13153;52.316;21.166;2024-02-26T02:53:34;99538.78;;;10.48;67.08
34124;BME280;13153;52.316;21.166;2024-02-26T02:56:00;99544.91;;;10.46;67.08
34124;BME280;13153;52.316;21.166;2024-02-26T02:58:26;99552.72;;;10.41;67.41
34124;BME280;13153;52.316;21.166;2024-02-26T03:00:52;99560.63;;;10.40;67.28
34124;BME280;13153;52.316;21.166;2024-02-26T03:03:20;99563.25;;;10.38;67.57
34124;BME280;13153;52.316;21.166;2024-02-26T03:05:46;99562.38;;;10.42;67.48
34124;BME280;13153;52.316;21.166;2024-02-26T03:08:12;99559.81;;;10.47;67.32
34124;BME280;13153;52.316;21.166;2024-02-26T03:10:38;99561.59;;;10.49;66.90
34124;BME280;13153;52.316;21.166;2024-02-26T03:13:03;99566.84;;;10.48;66.66
34124;BME280;13153;52.316;21.166;2024-02-26T03:15:29;99558.00;;;10.41;67.00
34124;BME280;13153;52.316;21.166;2024-02-26T03:17:55;99560.56;;;10.35;67.23
34124;BME280;13153;52.316;21.166;2024-02-26T03:20:21;99567.63;;;10.38;67.44
34124;BME280;13153;52.316;21.166;2024-02-26T03:22:47;99566.72;;;10.37;67.34
34124;BME280;13153;52.316;21.166;2024-02-26T03:25:13;99569.38;;;10.40;66.87
34124;BME280;13153;52.316;21.166;2024-02-26T03:27:38;99572.06;;;10.45;66.65
34124;BME280;13153;52.316;21.166;2024-02-26T03:30:05;99570.31;;;10.45;66.52
34124;BME280;13153;52.316;21.166;2024-02-26T03:32:31;99576.41;;;10.43;66.48
34124;BME280;13153;52.316;21.166;2024-02-26T03:34:57;99570.25;;;10.39;66.49
34124;BME280;13153;52.316;21.166;2024-02-26T03:37:23;99574.63;;;10.40;66.61
34124;BME280;13153;52.316;21.166;2024-02-26T03:39:49;99579.69;;;10.25;66.89
34124;BME280;13153;52.316;21.166;2024-02-26T03:42:14;99575.16;;;10.18;67.49
34124;BME280;13153;52.316;21.166;2024-02-26T03:44:42;99575.16;;;10.18;67.42
34124;BME280;13153;52.316;21.166;2024-02-26T03:47:07;99573.38;;;10.15;67.53
34124;BME280;13153;52.316;21.166;2024-02-26T03:49:33;99571.56;;;10.11;68.00
34124;BME280;13153;52.316;21.166;2024-02-26T03:51:59;99570.69;;;10.11;68.01
34124;BME280;13153;52.316;21.166;2024-02-26T03:54:24;99574.19;;;10.11;68.37
34124;BME280;13153;52.316;21.166;2024-02-26T03:56:50;99576.78;;;10.10;68.11
34124;BME280;13153;52.316;21.166;2024-02-26T03:59:16;99572.41;;;10.09;68.27
34124;BME280;13153;52.316;21.166;2024-02-26T04:01:46;99573.19;;;10.03;68.69
34124;BME280;13153;52.316;21.166;2024-02-26T04:04:15;99575.78;;;10.02;69.00
34124;BME280;13153;52.316;21.166;2024-02-26T04:06:45;99578.38;;;9.99;69.00
34124;BME280;13153;52.316;21.166;2024-02-26T04:09:14;99572.31;;;10.03;69.01
34124;BME280;13153;52.316;21.166;2024-02-26T04:11:40;99572.31;;;10.03;68.68
34124;BME280;13153;52.316;21.166;2024-02-26T04:14:06;99568.97;;;10.14;68.38
34124;BME280;13153;52.316;21.166;2024-02-26T04:16:37;99575.25;;;10.21;68.33
34124;BME280;13153;52.316;21.166;2024-02-26T04:19:02;99570.94;;;10.24;67.85
34124;BME280;13153;52.316;21.166;2024-02-26T04:21:28;99572.66;;;10.24;67.86
34124;BME280;13153;52.316;21.166;2024-02-26T04:23:54;99568.28;;;10.23;67.47
34124;BME280;13153;52.316;21.166;2024-02-26T04:26:26;99569.19;;;10.25;67.56
34124;BME280;13153;52.316;21.166;2024-02-26T04:28:52;99566.56;;;10.25;67.27
34124;BME280;13153;52.316;21.166;2024-02-26T04:31:18;99569.19;;;10.25;67.09
34124;BME280;13153;52.316;21.166;2024-02-26T04:33:44;99566.53;;;10.23;66.86
34124;BME280;13153;52.316;21.166;2024-02-26T04:36:16;99566.28;;;10.10;67.86
34124;BME280;13153;52.316;21.166;2024-02-26T04:38:43;99561.97;;;10.13;67.45
34124;BME280;13153;52.316;21.166;2024-02-26T04:41:09;99564.59;;;10.15;67.43
34124;BME280;13153;52.316;21.166;2024-02-26T04:43:37;99562.88;;;10.17;66.80
34124;BME280;13153;52.316;21.166;2024-02-26T04:46:12;99566.41;;;10.17;66.48
34124;BME280;13153;52.316;21.166;2024-02-26T04:48:41;99559.41;;;10.18;65.90
34124;BME280;13153;52.316;21.166;2024-02-26T04:51:07;99563.75;;;10.16;66.41
34124;BME280;13153;52.316;21.166;2024-02-26T04:53:33;99564.59;;;10.15;66.30
34124;BME280;13153;52.316;21.166;2024-02-26T04:55:59;99561.06;;;10.13;66.27
34124;BME280;13153;52.316;21.166;2024-02-26T04:58:25;99560.88;;;10.01;67.02
34124;BME280;13153;52.316;21.166;2024-02-26T05:00:51;99574.78;;;9.93;67.44
34124;BME280;13153;52.316;21.166;2024-02-26T05:03:17;99572.97;;;9.89;67.24
34124;BME280;13153;52.316;21.166;2024-02-26T05:05:45;99571.13;;;9.84;67.91
34124;BME280;13153;52.316;21.166;2024-02-26T05:08:11;99575.50;;;9.83;67.68
34124;BME280;13153;52.316;21.166;2024-02-26T05:10:38;99562.44;;;9.88;67.65
34124;BME280;13153;52.316;21.166;2024-02-26T05:13:07;99572.88;;;9.83;67.87
34124;BME280;13153;52.316;21.166;2024-02-26T05:15:33;99568.53;;;9.85;67.98
34124;BME280;13153;52.316;21.166;2024-02-26T05:17:59;99569.44;;;9.87;67.48
34124;BME280;13153;52.316;21.166;2024-02-26T05:20:25;99576.41;;;9.85;67.75
34124;BME280;13153;52.316;21.166;2024-02-26T05:22:51;99575.53;;;9.86;68.12
34124;BME280;13153;52.316;21.166;2024-02-26T05:25:17;99584.31;;;9.87;67.82
34124;BME280;13153;52.316;21.166;2024-02-26T05:27:44;99579.19;;;9.94;67.72
34124;BME280;13153;52.316;21.166;2024-02-26T05:30:11;99584.47;;;9.96;67.80
34124;BME280;13153;52.316;21.166;2024-02-26T05:32:37;99592.31;;;9.94;67.92
34124;BME280;13153;52.316;21.166;2024-02-26T05:35:03;99591.38;;;9.91;67.95
34124;BME280;13153;52.316;21.166;2024-02-26T05:37:29;99581.66;;;9.85;68.88
34124;BME280;13153;52.316;21.166;2024-02-26T05:39:55;99585.31;;;9.95;68.22
34124;BME280;13153;52.316;21.166;2024-02-26T05:42:21;99594.22;;;10.03;67.97
34124;BME280;13153;52.316;21.166;2024-02-26T05:44:47;99599.53;;;10.08;67.59
34124;BME280;13153;52.316;21.166;2024-02-26T05:47:13;99604.91;;;10.14;67.65
34124;BME280;13153;52.316;21.166;2024-02-26T05:49:43;99600.53;;;10.16;67.75
34124;BME280;13153;52.316;21.166;2024-02-26T05:52:08;99596.16;;;10.15;67.81
34124;BME280;13153;52.316;21.166;2024-02-26T05:54:34;99598.88;;;10.19;67.65
34124;BME280;13153;52.316;21.166;2024-02-26T05:57:01;99602.44;;;10.23;67.76
34124;BME280;13153;52.316;21.166;2024-02-26T05:59:27;99601.59;;;10.24;67.41
34124;BME280;13153;52.316;21.166;2024-02-26T06:01:52;99605.16;;;10.29;67.71
34124;BME280;13153;52.316;21.166;2024-02-26T06:04:18;99596.41;;;10.29;67.18
34124;BME280;13153;52.316;21.166;2024-02-26T06:06:44;99602.59;;;10.32;67.25
34124;BME280;13153;52.316;21.166;2024-02-26T06:09:13;99612.28;;;10.36;66.70
34124;BME280;13153;52.316;21.166;2024-02-26T06:11:39;99614.06;;;10.40;66.54
34124;BME280;13153;52.316;21.166;2024-02-26T06:14:04;99614.19;;;10.48;66.90
34124;BME280;13153;52.316;21.166;2024-02-26T06:16:30;99615.19;;;10.56;66.51
34124;BME280;13153;52.316;21.166;2024-02-26T06:18:56;99618.81;;;10.64;66.40
34124;BME280;13153;52.316;21.166;2024-02-26T06:21:22;99612.81;;;10.74;65.94
34124;BME280;13153;52.316;21.166;2024-02-26T06:23:48;99615.59;;;10.85;65.64
34124;BME280;13153;52.316;21.166;2024-02-26T06:26:15;99614.84;;;10.97;65.06
34124;BME280;13153;52.316;21.166;2024-02-26T06:28:40;99614.06;;;11.07;64.42
34124;BME280;13153;52.316;21.166;2024-02-26T06:31:06;99612.44;;;11.16;64.09
34124;BME280;13153;52.316;21.166;2024-02-26T06:33:32;99624.78;;;11.20;63.29
34124;BME280;13153;52.316;21.166;2024-02-26T06:35:58;99622.97;;;11.18;63.11
34124;BME280;13153;52.316;21.166;2024-02-26T06:38:24;99626.53;;;11.20;63.09
34124;BME280;13153;52.316;21.166;2024-02-26T06:40:50;99619.50;;;11.19;63.03
34124;BME280;13153;52.316;21.166;2024-02-26T06:43:16;99621.22;;;11.17;63.27
34124;BME280;13153;52.316;21.166;2024-02-26T06:45:41;99626.44;;;11.12;64.18
34124;BME280;13153;52.316;21.166;2024-02-26T06:48:07;99629.16;;;11.20;64.24
34124;BME280;13153;52.316;21.166;2024-02-26T06:50:33;99622.28;;;11.33;64.38
34124;BME280;13153;52.316;21.166;2024-02-26T06:52:59;99630.44;;;11.58;64.40
34124;BME280;13153;52.316;21.166;2024-02-26T06:55:24;99626.44;;;11.96;63.99
34124;BME280;13153;52.316;21.166;2024-02-26T06:57:50;99626.72;;;12.34;62.62
34124;BME280;13153;52.316;21.166;2024-02-26T07:00:16;99622.53;;;12.63;61.57
34124;BME280;13153;52.316;21.166;2024-02-26T07:02:43;99626.19;;;12.93;60.44
34124;BME280;13153;52.316;21.166;2024-02-26T07:05:09;99629.88;;;13.30;59.85
34124;BME280;13153;52.316;21.166;2024-02-26T07:07:35;99639.59;;;13.47;58.24
34124;BME280;13153;52.316;21.166;2024-02-26T07:10:01;99637.84;;;13.43;57.97
34124;BME280;13153;52.316;21.166;2024-02-26T07:12:30;99630.81;;;13.53;58.19
34124;BME280;13153;52.316;21.166;2024-02-26T07:14:56;99644.09;;;13.74;58.34
34124;BME280;13153;52.316;21.166;2024-02-26T07:17:22;99644.09;;;14.11;58.14
34124;BME280;13153;52.316;21.166;2024-02-26T07:19:48;99639.69;;;14.28;57.67
34124;BME280;13153;52.316;21.166;2024-02-26T07:22:13;99645.88;;;14.45;56.89
34124;BME280;13153;52.316;21.166;2024-02-26T07:24:39;99648.50;;;14.61;56.60
34124;BME280;13153;52.316;21.166;2024-02-26T07:27:05;99652.88;;;14.83;55.96
34124;BME280;13153;52.316;21.166;2024-02-26T07:29:31;99652.84;;;14.86;56.09
34124;BME280;13153;52.316;21.166;2024-02-26T07:31:58;99648.34;;;15.09;56.09
34124;BME280;13153;52.316;21.166;2024-02-26T07:34:23;99653.56;;;15.31;55.28
34124;BME280;13153;52.316;21.166;2024-02-26T07:36:53;99661.44;;;15.50;54.70
34124;BME280;13153;52.316;21.166;2024-02-26T07:39:19;99656.00;;;15.72;54.67
34124;BME280;13153;52.316;21.166;2024-02-26T07:41:45;99668.38;;;15.73;54.34
34124;BME280;13153;52.316;21.166;2024-02-26T07:44:14;99661.31;;;15.72;54.65
34124;BME280;13153;52.316;21.166;2024-02-26T07:46:39;99662.09;;;15.88;54.17
34124;BME280;13153;52.316;21.166;2024-02-26T07:49:05;99664.78;;;15.81;54.10
34124;BME280;13153;52.316;21.166;2024-02-26T07:51:31;99664.69;;;16.00;54.65
34124;BME280;13153;52.316;21.166;2024-02-26T07:53:58;99665.38;;;16.20;54.29
34124;BME280;13153;52.316;21.166;2024-02-26T07:56:24;99670.69;;;16.20;53.82
34124;BME280;13153;52.316;21.166;2024-02-26T07:58:49;99677.75;;;16.24;54.25
34124;BME280;13153;52.316;21.166;2024-02-26T08:01:15;99669.53;;;16.55;54.37
34124;BME280;13153;52.316;21.166;2024-02-26T08:03:41;99676.50;;;16.71;53.77
34124;BME280;13153;52.316;21.166;2024-02-26T08:06:08;99670.09;;;16.87;53.27
34124;BME280;13153;52.316;21.166;2024-02-26T08:08:34;99666.63;;;16.79;53.04
34124;BME280;13153;52.316;21.166;2024-02-26T08:11:00;99665.44;;;17.09;52.92
34124;BME280;13153;52.316;21.166;2024-02-26T08:13:26;99668.94;;;17.12;52.72
34124;BME280;13153;52.316;21.166;2024-02-26T08:15:52;99673.25;;;17.23;52.48
34124;BME280;13153;52.316;21.166;2024-02-26T08:18:18;99681.13;;;17.32;52.42
34124;BME280;13153;52.316;21.166;2024-02-26T08:20:44;99676.59;;;17.37;52.20
34124;BME280;13153;52.316;21.166;2024-02-26T08:23:11;99673.78;;;17.49;51.90
34124;BME280;13153;52.316;21.166;2024-02-26T08:25:37;99678.91;;;17.64;52.00
34124;BME280;13153;52.316;21.166;2024-02-26T08:28:03;99682.34;;;17.75;51.85
34124;BME280;13153;52.316;21.166;2024-02-26T08:30:28;99676.25;;;17.66;51.70
34124;BME280;13153;52.316;21.166;2024-02-26T08:32:54;99671.78;;;17.69;51.72
34124;BME280;13153;52.316;21.166;2024-02-26T08:35:20;99676.97;;;17.80;51.78
34124;BME280;13153;52.316;21.166;2024-02-26T08:37:47;99687.50;;;17.88;51.86
34124;BME280;13153;52.316;21.166;2024-02-26T08:40:14;99677.16;;;17.66;52.29
34124;BME280;13153;52.316;21.166;2024-02-26T08:42:40;99676.97;;;17.80;52.32
34124;BME280;13153;52.316;21.166;2024-02-26T08:45:07;99694.50;;;17.92;52.10
34124;BME280;13153;52.316;21.166;2024-02-26T08:47:33;99687.34;;;17.95;51.81
34124;BME280;13153;52.316;21.166;2024-02-26T08:49:59;99694.84;;;17.69;51.92
34124;BME280;13153;52.316;21.166;2024-02-26T08:52:25;99680.72;;;17.61;52.14
34124;BME280;13153;52.316;21.166;2024-02-26T08:54:50;99681.66;;;17.58;52.50
34124;BME280;13153;52.316;21.166;2024-02-26T08:57:16;99684.16;;;17.72;52.72
34124;BME280;13153;52.316;21.166;2024-02-26T08:59:42;99685.75;;;17.85;52.60
34124;BME280;13153;52.316;21.166;2024-02-26T09:02:09;99684.84;;;17.86;52.04
34124;BME280;13153;52.316;21.166;2024-02-26T09:04:35;99680.13;;;18.05;52.17
34124;BME280;13153;52.316;21.166;2024-02-26T09:07:02;99686.91;;;18.26;51.75
34124;BME280;13153;52.316;21.166;2024-02-26T09:09:28;99686.81;;;18.30;51.68
34124;BME280;13153;52.316;21.166;2024-02-26T09:11:54;99694.81;;;18.30;51.38
34124;BME280;13153;52.316;21.166;2024-02-26T09:14:21;99688.56;;;18.33;50.86
34124;BME280;13153;52.316;21.166;2024-02-26T09:16:47;99691.34;;;18.25;51.16
34124;BME280;13153;52.316;21.166;2024-02-26T09:19:16;99704.75;;;18.19;52.15
34124;BME280;13153;52.316;21.166;2024-02-26T09:21:44;99701.41;;;18.05;52.20
34124;BME280;13153;52.316;21.166;2024-02-26T09:24:11;99704.53;;;17.74;52.59
34124;BME280;13153;52.316;21.166;2024-02-26T09:26:38;99703.97;;;17.46;53.41
34124;BME280;13153;52.316;21.166;2024-02-26T09:29:03;99704.38;;;17.14;54.26
34124;BME280;13153;52.316;21.166;2024-02-26T09:31:30;99707.28;;;16.89;55.01
34124;BME280;13153;52.316;21.166;2024-02-26T09:33:56;99702.22;;;16.66;56.03
34124;BME280;13153;52.316;21.166;2024-02-26T09:36:22;99709.34;;;16.58;56.57
34124;BME280;13153;52.316;21.166;2024-02-26T09:38:48;99713.94;;;16.34;56.94
34124;BME280;13153;52.316;21.166;2024-02-26T09:41:17;99701.03;;;15.84;57.89
34124;BME280;13153;52.316;21.166;2024-02-26T09:43:45;99708.94;;;15.92;57.93
34124;BME280;13153;52.316;21.166;2024-02-26T09:46:14;99710.81;;;15.74;58.46
34124;BME280;13153;52.316;21.166;2024-02-26T09:48:43;99709.03;;;15.76;58.08
34124;BME280;13153;52.316;21.166;2024-02-26T09:51:11;99711.59;;;15.95;57.69
34124;BME280;13153;52.316;21.166;2024-02-26T09:53:39;99707.97;;;16.08;57.66
34124;BME280;13153;52.316;21.166;2024-02-26T09:56:08;99718.53;;;16.17;57.54
34124;BME280;13153;52.316;21.166;2024-02-26T09:58:36;99721.97;;;16.25;57.18
34124;BME280;13153;52.316;21.166;2024-02-26T10:01:04;99716.69;;;16.24;57.00
34124;BME280;13153;52.316;21.166;2024-02-26T10:03:39;99719.38;;;16.19;57.16
34124;BME280;13153;52.316;21.166;2024-02-26T10:06:08;99725.53;;;16.24;57.63
34124;BME280;13153;52.316;21.166;2024-02-26T10:08:35;99729.06;;;16.26;57.12
34124;BME280;13153;52.316;21.166;2024-02-26T10:11:04;99726.38;;;16.31;57.28
34124;BME280;13153;52.316;21.166;2024-02-26T10:13:30;99728.16;;;16.29;57.26
34124;BME280;13153;52.316;21.166;2024-02-26T10:15:56;99737.00;;;16.28;57.52
34124;BME280;13153;52.316;21.166;2024-02-26T10:18:26;99734.50;;;16.11;57.78
34124;BME280;13153;52.316;21.166;2024-02-26T10:21:02;99732.84;;;15.89;57.95
34124;BME280;13153;52.316;21.166;2024-02-26T10:23:28;99732.84;;;15.89;58.14
34124;BME280;13153;52.316;21.166;2024-02-26T10:25:55;99733.75;;;15.83;58.43
34124;BME280;13153;52.316;21.166;2024-02-26T10:28:21;99733.75;;;15.88;58.53
34124;BME280;13153;52.316;21.166;2024-02-26T10:30:47;99738.25;;;15.70;58.95
34124;BME280;13153;52.316;21.166;2024-02-26T10:33:13;99738.34;;;15.40;59.63
34124;BME280;13153;52.316;21.166;2024-02-26T10:35:45;99741.03;;;15.29;60.35
34124;BME280;13153;52.316;21.166;2024-02-26T10:38:12;99730.47;;;15.20;60.37
34124;BME280;13153;52.316;21.166;2024-02-26T10:40:38;99729.66;;;15.00;60.92
34124;BME280;13153;52.316;21.166;2024-02-26T10:43:04;99734.00;;;15.11;60.78
34124;BME280;13153;52.316;21.166;2024-02-26T10:45:29;99727.88;;;14.97;61.23
34124;BME280;13153;52.316;21.166;2024-02-26T10:47:57;99726.97;;;15.04;60.76
34124;BME280;13153;52.316;21.166;2024-02-26T10:50:23;99733.09;;;15.18;60.59
34124;BME280;13153;52.316;21.166;2024-02-26T10:52:50;99729.50;;;15.44;59.75
34124;BME280;13153;52.316;21.166;2024-02-26T10:55:17;99723.22;;;15.71;59.94
34124;BME280;13153;52.316;21.166;2024-02-26T10:57:52;99718.72;;;15.83;58.73
34124;BME280;13153;52.316;21.166;2024-02-26T11:00:22;99724.88;;;15.89;58.63
34124;BME280;13153;52.316;21.166;2024-02-26T11:02:48;99727.44;;;16.05;58.20
34124;BME280;13153;52.316;21.166;2024-02-26T11:05:17;99723.75;;;16.25;57.86
34124;BME280;13153;52.316;21.166;2024-02-26T11:07:43;99723.88;;;16.11;56.81
34124;BME280;13153;52.316;21.166;2024-02-26T11:10:11;99726.38;;;16.28;56.76
34124;BME280;13153;52.316;21.166;2024-02-26T11:12:39;99726.41;;;16.23;55.93
34124;BME280;13153;52.316;21.166;2024-02-26T11:15:05;99713.16;;;16.23;56.20
34124;BME280;13153;52.316;21.166;2024-02-26T11:17:32;99707.06;;;16.09;56.32
34124;BME280;13153;52.316;21.166;2024-02-26T11:20:00;99709.63;;;16.18;56.33
34124;BME280;13153;52.316;21.166;2024-02-26T11:22:28;99696.28;;;16.32;55.84
34124;BME280;13153;52.316;21.166;2024-02-26T11:24:56;99710.47;;;16.28;55.97
34124;BME280;13153;52.316;21.166;2024-02-26T11:27:32;99703.28;;;16.39;55.75
34124;BME280;13153;52.316;21.166;2024-02-26T11:29:59;99713.94;;;16.36;55.62
34124;BME280;13153;52.316;21.166;2024-02-26T11:32:29;99712.03;;;16.53;55.53
34124;BME280;13153;52.316;21.166;2024-02-26T11:34:57;99705.03;;;16.43;55.01
34124;BME280;13153;52.316;21.166;2024-02-26T11:37:24;99711.28;;;16.34;54.94
34124;BME280;13153;52.316;21.166;2024-02-26T11:39:52;99707.91;;;16.17;55.04
34124;BME280;13153;52.316;21.166;2024-02-26T11:42:24;99711.47;;;16.13;55.23
34124;BME280;13153;52.316;21.166;2024-02-26T11:44:54;99708.06;;;15.94;55.50
34124;BME280;13153;52.316;21.166;2024-02-26T11:47:22;99707.13;;;16.01;55.86
34124;BME280;13153;52.316;21.166;2024-02-26T11:49:49;99705.25;;;16.17;55.67
34124;BME280;13153;52.316;21.166;2024-02-26T11:52:16;99713.25;;;16.14;55.57
34124;BME280;13153;52.316;21.166;2024-02-26T11:54:52;99711.31;;;16.30;55.28
34124;BME280;13153;52.316;21.166;2024-02-26T11:57:25;99719.34;;;16.24;54.93
34124;BME280;13153;52.316;21.166;2024-02-26T12:00:14;99715.72;;;16.32;54.46
34124;BME280;13153;52.316;21.166;2024-02-26T12:02:55;99706.06;;;16.22;54.93
34124;BME280;13153;52.316;21.166;2024-02-26T12:05:30;99702.53;;;16.23;54.85
34124;BME280;13153;52.316;21.166;2024-02-26T12:08:08;99701.66;;;16.21;54.71
34124;BME280;13153;52.316;21.166;2024-02-26T12:10:37;99697.19;;;16.26;54.61
34124;BME280;13153;52.316;21.166;2024-02-26T12:13:15;99705.22;;;16.18;54.44
34124;BME280;13153;52.316;21.166;2024-02-26T12:15:55;99699.97;;;16.14;54.18
34124;BME280;13153;52.316;21.166;2024-02-26T12:18:23;99698.09;;;16.22;54.33
34124;BME280;13153;52.316;21.166;2024-02-26T12:21:04;99697.25;;;16.20;54.05
34124;BME280;13153;52.316;21.166;2024-02-26T12:23:30;99714.06;;;16.17;54.08
34124;BME280;13153;52.316;21.166;2024-02-26T12:26:00;99707.81;;;16.28;54.02
34124;BME280;13153;52.316;21.166;2024-02-26T12:28:30;99698.84;;;16.42;53.71
34124;BME280;13153;52.316;21.166;2024-02-26T12:30:56;99702.31;;;16.52;53.55
34124;BME280;13153;52.316;21.166;2024-02-26T12:33:25;99711.19;;;16.49;53.73
34124;BME280;13153;52.316;21.166;2024-02-26T12:35:53;99707.63;;;16.49;53.19
34124;BME280;13153;52.316;21.166;2024-02-26T12:38:19;99705.06;;;16.38;53.16
34124;BME280;13153;52.316;21.166;2024-02-26T12:40:45;99701.56;;;16.35;53.63
34124;BME280;13153;52.316;21.166;2024-02-26T12:43:12;99716.59;;;16.37;53.70
34124;BME280;13153;52.316;21.166;2024-02-26T12:45:42;99709.44;;;16.44;53.37
34124;BME280;13153;52.316;21.166;2024-02-26T12:48:12;99697.06;;;16.44;53.20
34124;BME280;13153;52.316;21.166;2024-02-26T12:50:38;99697.00;;;16.50;52.66